Time;durP1;ratioP1;P1;durP2;ratioP2;P2;SDS_P1;SDS_P2;PMS_P1;PMS_P2;Temp;Humidity;BMP_temperature;BMP_pressure;BME280_temperature;BME280_humidity;BME280_pressure;Samples;Min_cycle;Max_cycle;Signal;HPM_P1;HPM_P2
2023/07/05 00:00:40;;;;;;;12.03;7.73;;;18.10;99.90;;;;;;5038074;28;20459;-83
2023/07/05 00:03:06;;;;;;;10.17;6.73;;;18.10;99.90;;;;;;5027055;28;20534;-83
2023/07/05 00:05:36;;;;;;;8.70;7.00;;;18.10;99.90;;;;;;5017446;28;20457;-83
2023/07/05 00:08:04;;;;;;;11.60;6.80;;;18.10;99.90;;;;;;5014643;28;20458;-83
2023/07/05 00:10:31;;;;;;;8.23;6.03;;;18.10;99.90;;;;;;5016741;28;20461;-82
2023/07/05 00:12:59;;;;;;;8.10;5.20;;;18.10;99.90;;;;;;5016705;28;20453;-83
2023/07/05 00:15:26;;;;;;;8.77;5.60;;;18.10;99.90;;;;;;5016831;28;20454;-83
2023/07/05 00:17:53;;;;;;;7.70;4.83;;;18.10;99.90;;;;;;5017286;28;20451;-83
2023/07/05 00:20:20;;;;;;;6.87;5.00;;;18.00;99.90;;;;;;5016264;28;20453;-82
2023/07/05 00:22:47;;;;;;;8.20;4.87;;;18.10;99.90;;;;;;5017422;28;21032;-83
2023/07/05 00:25:15;;;;;;;5.73;4.03;;;18.20;99.90;;;;;;5017266;28;20457;-82
2023/07/05 00:27:42;;;;;;;5.50;3.87;;;18.20;99.90;;;;;;5017217;28;20463;-83
2023/07/05 00:30:10;;;;;;;6.17;3.73;;;18.20;99.90;;;;;;5016861;28;21055;-83
2023/07/05 00:32:37;;;;;;;9.03;4.40;;;18.20;99.90;;;;;;5017730;28;20462;-84
2023/07/05 00:35:04;;;;;;;4.23;3.60;;;18.30;99.90;;;;;;5016569;28;20469;-83
2023/07/05 00:37:31;;;;;;;6.00;3.60;;;18.30;99.90;;;;;;5017314;28;20462;-81
2023/07/05 00:39:58;;;;;;;5.53;4.03;;;18.30;99.90;;;;;;5016923;28;20911;-82
2023/07/05 00:42:26;;;;;;;4.30;3.20;;;18.30;99.90;;;;;;5017756;28;20550;-84
2023/07/05 00:45:36;;;;;;;7.77;3.80;;;18.30;99.90;;;;;;5016479;28;20461;-82
2023/07/05 00:48:03;;;;;;;4.83;3.13;;;18.30;99.90;;;;;;5015357;28;20520;-81
2023/07/05 00:50:38;;;;;;;5.80;3.70;;;18.20;99.90;;;;;;5013751;28;21046;-80
2023/07/05 00:53:07;;;;;;;5.30;3.70;;;18.20;99.90;;;;;;4993001;28;20442;-80
2023/07/05 00:55:34;;;;;;;5.40;3.53;;;18.10;99.90;;;;;;4994075;28;20453;-81
2023/07/05 00:58:04;;;;;;;5.57;3.10;;;18.00;99.90;;;;;;4994564;28;20450;-80
2023/07/05 01:00:35;;;;;;;6.07;3.27;;;18.00;99.90;;;;;;4994698;28;20466;-81
2023/07/05 01:03:07;;;;;;;5.40;3.20;;;18.00;99.90;;;;;;4996492;28;20483;-81
2023/07/05 01:05:35;;;;;;;6.10;3.33;;;17.90;99.90;;;;;;5015263;28;20447;-82
2023/07/05 01:08:04;;;;;;;4.80;3.47;;;17.90;99.90;;;;;;5017443;28;20461;-80
2023/07/05 01:10:34;;;;;;;4.00;3.50;;;17.90;99.90;;;;;;5018382;28;20563;-81
2023/07/05 01:13:08;;;;;;;3.80;2.90;;;17.90;99.90;;;;;;5014575;28;20441;-81
2023/07/05 01:15:42;;;;;;;9.70;4.50;;;17.80;99.90;;;;;;5018444;28;20821;-81
2023/07/05 01:18:16;;;;;;;8.10;3.43;;;17.80;99.90;;;;;;5018781;28;20514;-81
2023/07/05 01:20:51;;;;;;;4.93;3.50;;;17.80;99.90;;;;;;5018810;28;20491;-81
2023/07/05 01:23:42;;;;;;;5.63;3.63;;;17.80;99.90;;;;;;5017919;28;20496;-80
2023/07/05 01:26:27;;;;;;;6.50;3.90;;;17.80;99.90;;;;;;5017456;28;20451;-81
2023/07/05 01:29:23;;;;;;;4.60;2.73;;;17.80;99.90;;;;;;5019426;28;20460;-82
2023/07/05 01:32:06;;;;;;;5.27;3.17;;;17.60;99.90;;;;;;5018407;28;20460;-81
2023/07/05 01:34:42;;;;;;;5.00;2.93;;;17.70;99.90;;;;;;5017889;28;20973;-81
2023/07/05 01:37:11;;;;;;;5.13;3.20;;;17.70;99.90;;;;;;5018305;28;20456;-81
2023/07/05 01:39:38;;;;;;;4.70;3.30;;;17.70;99.90;;;;;;5019053;28;20447;-81
2023/07/05 01:42:06;;;;;;;3.97;3.27;;;17.70;99.90;;;;;;5018312;28;21114;-81
2023/07/05 01:44:33;;;;;;;6.30;3.30;;;17.70;99.90;;;;;;5018069;28;20489;-81
2023/07/05 01:47:07;;;;;;;5.07;3.80;;;17.70;99.90;;;;;;5017932;28;20458;-81
2023/07/05 01:49:54;;;;;;;5.30;3.77;;;17.70;99.90;;;;;;5018070;28;20448;-82
2023/07/05 01:52:29;;;;;;;5.10;3.40;;;17.70;99.90;;;;;;5018207;28;20453;-81
2023/07/05 01:55:05;;;;;;;6.33;3.20;;;17.60;99.90;;;;;;5018253;28;20864;-81
2023/07/05 01:57:36;;;;;;;4.30;2.67;;;17.60;99.90;;;;;;5017749;28;20452;-81
2023/07/05 02:00:07;;;;;;;3.73;2.67;;;17.70;99.90;;;;;;5018435;28;20472;-80
2023/07/05 02:02:39;;;;;;;6.37;3.80;;;17.70;99.90;;;;;;5017678;28;20440;-81
2023/07/05 02:05:09;;;;;;;4.53;3.40;;;17.70;99.90;;;;;;5015988;28;21003;-82
2023/07/05 02:07:36;;;;;;;5.90;3.13;;;17.60;99.90;;;;;;5017972;28;20478;-81
2023/07/05 02:10:04;;;;;;;5.97;3.70;;;17.60;99.90;;;;;;5018178;28;20484;-80
2023/07/05 02:12:31;;;;;;;6.47;3.47;;;17.60;99.90;;;;;;5018813;28;20455;-81
2023/07/05 02:14:57;;;;;;;5.23;2.70;;;17.60;99.90;;;;;;5017654;28;20564;-81
2023/07/05 02:17:24;;;;;;;3.43;2.63;;;17.60;99.90;;;;;;5017699;28;20445;-81
2023/07/05 02:19:52;;;;;;;4.30;2.93;;;17.50;99.90;;;;;;5017148;28;20987;-80
2023/07/05 02:22:19;;;;;;;2.67;2.47;;;17.50;99.90;;;;;;5018303;28;20459;-81
2023/07/05 02:24:46;;;;;;;4.70;2.80;;;17.50;99.90;;;;;;5021203;28;20499;-80
2023/07/05 02:27:13;;;;;;;5.00;2.83;;;17.50;99.90;;;;;;5015752;28;20450;-81
2023/07/05 02:29:40;;;;;;;9.13;3.07;;;17.50;99.90;;;;;;5014537;28;20465;-79
2023/07/05 02:32:07;;;;;;;4.20;3.33;;;17.50;99.90;;;;;;5013512;28;20455;-80
2023/07/05 02:34:39;;;;;;;3.50;2.33;;;17.50;99.90;;;;;;5014284;28;20473;-80
2023/07/05 02:37:08;;;;;;;6.43;2.97;;;17.60;99.90;;;;;;5013207;28;20942;-80
2023/07/05 02:39:35;;;;;;;3.17;2.40;;;17.50;99.90;;;;;;5011959;28;20480;-80
2023/07/05 02:42:02;;;;;;;3.97;3.00;;;17.50;99.90;;;;;;5004493;28;20610;-81
2023/07/05 02:44:29;;;;;;;3.43;2.23;;;17.60;99.90;;;;;;5002392;28;20494;-81
2023/07/05 02:46:56;;;;;;;3.27;2.30;;;17.50;99.90;;;;;;5015663;28;20891;-81
2023/07/05 02:49:22;;;;;;;4.10;2.43;;;17.50;99.90;;;;;;5015126;28;20459;-81
2023/07/05 02:51:49;;;;;;;7.00;2.70;;;17.50;99.90;;;;;;5014723;28;20452;-81
2023/07/05 02:54:18;;;;;;;4.10;2.63;;;17.50;99.90;;;;;;5014821;28;20491;-81
2023/07/05 02:56:44;;;;;;;3.27;2.23;;;17.50;99.90;;;;;;5016057;28;20452;-81
2023/07/05 02:59:11;;;;;;;5.63;2.17;;;17.50;99.90;;;;;;5014518;28;20894;-81
2023/07/05 03:01:38;;;;;;;6.70;2.60;;;17.60;99.90;;;;;;5015027;28;20465;-81
2023/07/05 03:04:05;;;;;;;3.20;2.40;;;17.60;99.90;;;;;;5015522;28;20482;-81
2023/07/05 03:06:32;;;;;;;3.17;2.50;;;17.60;99.90;;;;;;5016519;28;20496;-82
2023/07/05 03:08:59;;;;;;;4.80;2.97;;;17.60;99.90;;;;;;5014766;28;21030;-83
2023/07/05 03:11:27;;;;;;;4.50;2.40;;;17.60;99.90;;;;;;5014827;28;20457;-82
2023/07/05 03:13:54;;;;;;;2.90;2.53;;;17.60;99.90;;;;;;5015486;28;20900;-82
2023/07/05 03:16:21;;;;;;;6.70;3.13;;;17.50;99.90;;;;;;5014609;28;20456;-82
2023/07/05 03:18:47;;;;;;;4.67;2.50;;;17.50;99.90;;;;;;5014749;28;20459;-83
2023/07/05 03:21:14;;;;;;;3.77;2.50;;;17.60;99.90;;;;;;5013124;28;22001;-83
2023/07/05 03:23:41;;;;;;;2.77;2.37;;;17.50;99.90;;;;;;5016489;28;20589;-82
2023/07/05 03:26:09;;;;;;;3.27;2.50;;;17.50;99.90;;;;;;5017369;28;20462;-82
2023/07/05 03:28:38;;;;;;;5.10;2.37;;;17.60;99.90;;;;;;5016774;28;20451;-83
2023/07/05 03:31:06;;;;;;;7.57;3.10;;;17.60;99.90;;;;;;5015816;28;20479;-82
2023/07/05 03:33:35;;;;;;;3.90;2.57;;;17.60;99.90;;;;;;5016570;28;20480;-82
2023/07/05 03:36:03;;;;;;;7.20;2.67;;;17.50;99.90;;;;;;5015689;28;20460;-82
2023/07/05 03:38:31;;;;;;;3.83;2.30;;;17.50;99.90;;;;;;5016825;28;20454;-83
2023/07/05 03:41:00;;;;;;;7.27;3.67;;;17.50;99.90;;;;;;5015151;28;20461;-83
2023/07/05 03:43:27;;;;;;;4.27;2.80;;;17.50;99.90;;;;;;5014443;28;20856;-82
2023/07/05 03:45:58;;;;;;;4.20;3.10;;;17.60;99.90;;;;;;5015268;28;20472;-82
2023/07/05 03:48:25;;;;;;;3.23;2.23;;;17.60;99.90;;;;;;5016514;28;20452;-82
2023/07/05 03:50:56;;;;;;;2.20;1.97;;;17.50;99.90;;;;;;5017208;28;20990;-83
2023/07/05 03:53:22;;;;;;;4.20;2.13;;;17.50;99.90;;;;;;5016600;28;20660;-83
2023/07/05 03:55:49;;;;;;;3.20;2.50;;;17.50;99.90;;;;;;5013943;28;20502;-82
2023/07/05 03:58:16;;;;;;;3.90;2.40;;;17.50;99.90;;;;;;5014388;28;20456;-83
2023/07/05 04:00:44;;;;;;;3.43;1.97;;;17.20;99.90;;;;;;5016535;28;20452;-82
2023/07/05 04:03:13;;;;;;;3.37;2.20;;;17.20;99.90;;;;;;5014681;28;20478;-82
2023/07/05 04:05:40;;;;;;;4.63;2.37;;;17.10;99.90;;;;;;5016558;28;20578;-83
2023/07/05 04:08:07;;;;;;;3.00;1.60;;;17.00;99.90;;;;;;5017811;28;20512;-83
2023/07/05 04:10:34;;;;;;;3.83;1.90;;;16.90;99.90;;;;;;5015581;28;21052;-82
2023/07/05 04:13:01;;;;;;;3.13;2.10;;;16.50;99.90;;;;;;5016410;28;20474;-83
2023/07/05 04:15:27;;;;;;;3.90;2.00;;;16.30;99.90;;;;;;5015657;28;20464;-84
2023/07/05 04:17:54;;;;;;;5.27;1.87;;;16.10;99.90;;;;;;5012722;28;20457;-82
2023/07/05 04:20:22;;;;;;;4.37;1.97;;;16.00;99.90;;;;;;5015732;28;20512;-82
2023/07/05 04:22:49;;;;;;;2.37;1.33;;;15.80;99.90;;;;;;5010340;28;20548;-82
2023/07/05 04:25:16;;;;;;;3.30;1.83;;;15.80;99.90;;;;;;5015835;28;20580;-82
2023/07/05 04:27:43;;;;;;;3.10;1.73;;;15.80;99.90;;;;;;5015497;28;20464;-82
2023/07/05 04:30:11;;;;;;;3.97;1.90;;;15.90;99.90;;;;;;5016627;28;20514;-82
2023/07/05 04:32:38;;;;;;;3.57;2.00;;;15.90;99.90;;;;;;5016599;28;20464;-82
2023/07/05 04:35:05;;;;;;;3.10;1.70;;;15.90;99.90;;;;;;5016931;28;20466;-82
2023/07/05 04:37:33;;;;;;;3.10;1.47;;;15.80;99.90;;;;;;5016377;28;20449;-82
2023/07/05 04:40:00;;;;;;;2.73;1.57;;;15.70;99.90;;;;;;5018326;28;20535;-82
2023/07/05 04:42:27;;;;;;;2.60;1.57;;;15.70;99.90;;;;;;5020127;28;20449;-83
2023/07/05 04:44:54;;;;;;;3.93;2.13;;;15.60;99.90;;;;;;5020721;28;20488;-83
2023/07/05 04:47:20;;;;;;;3.13;2.10;;;15.70;99.90;;;;;;5020026;28;20997;-83
2023/07/05 04:49:47;;;;;;;4.00;2.47;;;15.70;99.90;;;;;;5021449;28;20954;-85
2023/07/05 04:52:16;;;;;;;2.87;2.00;;;15.60;99.90;;;;;;5024859;28;20454;-85
2023/07/05 04:54:44;;;;;;;3.47;1.87;;;15.70;99.90;;;;;;5031860;28;20569;-84
2023/07/05 04:57:11;;;;;;;4.27;2.13;;;15.40;99.90;;;;;;5035023;28;20475;-83
2023/07/05 04:59:43;;;;;;;3.10;1.83;;;15.50;99.90;;;;;;5035542;28;20477;-83
2023/07/05 05:02:10;;;;;;;2.83;1.73;;;14.80;99.90;;;;;;5034633;28;20508;-82
2023/07/05 05:04:37;;;;;;;3.10;1.60;;;15.30;94.70;;;;;;5029652;28;20550;-83
2023/07/05 05:07:06;;;;;;;3.83;2.00;;;15.40;99.90;;;;;;5023932;28;20453;-83
2023/07/05 05:09:32;;;;;;;4.43;2.70;;;15.60;99.90;;;;;;5019674;28;20460;-84
2023/07/05 05:12:00;;;;;;;5.10;2.30;;;15.50;99.90;;;;;;5018408;28;20973;-84
2023/07/05 05:14:27;;;;;;;5.77;2.30;;;15.50;99.90;;;;;;5018233;28;20564;-83
2023/07/05 05:16:54;;;;;;;3.47;1.90;;;15.50;88.70;;;;;;5019503;28;20558;-84
2023/07/05 05:19:21;;;;;;;3.47;1.83;;;15.50;58.00;;;;;;5020410;28;20477;-84
2023/07/05 05:21:48;;;;;;;3.90;2.57;;;15.50;64.70;;;;;;5019132;28;20449;-84
2023/07/05 05:24:15;;;;;;;3.03;2.00;;;15.50;34.10;;;;;;5018109;28;20501;-83
2023/07/05 05:26:41;;;;;;;6.83;2.90;;;15.50;67.30;;;;;;5020633;28;20453;-84
2023/07/05 05:29:09;;;;;;;3.60;2.20;;;15.70;47.80;;;;;;5021554;28;20464;-85
2023/07/05 05:31:37;;;;;;;3.80;2.33;;;15.90;70.20;;;;;;5024339;28;20449;-84
2023/07/05 05:34:04;;;;;;;5.60;2.30;;;15.80;42.80;;;;;;5024998;28;20584;-83
2023/07/05 05:36:31;;;;;;;4.07;2.83;;;15.90;14.70;;;;;;5026500;28;20509;-85
2023/07/05 05:38:58;;;;;;;5.37;2.13;;;16.00;1.00;;;;;;5026369;28;20512;-85
2023/07/05 05:41:25;;;;;;;4.20;1.97;;;15.90;26.50;;;;;;5026599;28;20488;-85
2023/07/05 05:43:51;;;;;;;5.20;2.60;;;16.10;4.60;;;;;;5021913;28;20484;-83
2023/07/05 05:46:20;;;;;;;7.20;2.83;;;16.00;1.00;;;;;;5026343;28;20513;-84
2023/07/05 05:48:47;;;;;;;4.40;3.00;;;16.10;1.00;;;;;;5032886;28;20460;-83
2023/07/05 05:51:17;;;;;;;4.87;2.73;;;16.10;1.00;;;;;;5036189;28;20465;-85
2023/07/05 05:56:19;;;;;;;3.67;2.50;;;16.10;1.00;;;;;;5068884;28;20474;-82
2023/07/05 05:58:46;;;;;;;5.07;2.40;;;16.20;1.00;;;;;;5075438;28;20457;-81
2023/07/05 06:01:13;;;;;;;7.23;2.70;;;16.40;1.00;;;;;;5072577;28;20461;-82
2023/07/05 06:03:41;;;;;;;3.60;2.67;;;16.20;1.00;;;;;;5079980;28;20480;-80
2023/07/05 06:06:08;;;;;;;5.70;2.40;;;16.20;1.00;;;;;;5077597;28;20860;-78
2023/07/05 06:08:34;;;;;;;4.27;2.60;;;16.20;1.00;;;;;;5082030;28;20458;-80
2023/07/05 06:11:03;;;;;;;4.17;2.60;;;16.30;1.00;;;;;;5083126;28;20553;-80
2023/07/05 06:13:31;;;;;;;4.20;2.33;;;16.30;1.00;;;;;;5071596;28;20444;-81
2023/07/05 06:16:00;;;;;;;6.07;2.87;;;16.30;1.00;;;;;;5077883;28;20472;-77
2023/07/05 06:18:27;;;;;;;5.50;2.43;;;16.30;1.00;;;;;;5078500;28;20460;-80
2023/07/05 06:20:55;;;;;;;4.73;2.53;;;16.30;1.00;;;;;;5065510;28;20458;-81
2023/07/05 06:23:22;;;;;;;5.43;2.10;;;16.30;1.00;;;;;;5068686;28;20506;-81
2023/07/05 06:25:50;;;;;;;4.37;2.80;;;16.40;1.00;;;;;;5068689;28;20521;-79
2023/07/05 06:28:18;;;;;;;4.80;2.17;;;16.50;1.00;;;;;;5079245;28;20453;-81
2023/07/05 06:30:46;;;;;;;5.20;2.93;;;16.50;1.00;;;;;;5066370;28;21005;-78
2023/07/05 06:33:14;;;;;;;4.30;2.27;;;16.60;1.00;;;;;;5063858;28;20469;-80
2023/07/05 06:35:41;;;;;;;4.20;2.40;;;16.50;99.90;;;;;;5068046;28;21110;-79
2023/07/05 06:38:09;;;;;;;5.70;2.57;;;16.50;99.90;;;;;;5072734;28;20498;-80
2023/07/05 06:40:36;;;;;;;4.60;2.27;;;16.50;1.00;;;;;;5071618;28;20543;-78
2023/07/05 06:43:03;;;;;;;4.73;2.37;;;16.40;1.00;;;;;;5068699;28;20450;-80
2023/07/05 06:45:30;;;;;;;4.70;2.40;;;16.30;99.90;;;;;;5068617;28;21186;-79
2023/07/05 06:47:56;;;;;;;3.70;2.30;;;16.30;1.00;;;;;;5068006;28;20464;-81
2023/07/05 06:50:23;;;;;;;4.30;2.37;;;16.30;1.00;;;;;;5079241;28;20518;-84
2023/07/05 06:52:50;;;;;;;3.63;2.13;;;16.30;99.90;;;;;;5062651;28;20459;-79
2023/07/05 06:55:18;;;;;;;5.17;2.27;;;16.40;1.00;;;;;;5061323;28;20999;-81
2023/07/05 06:57:45;;;;;;;5.80;2.50;;;16.60;1.00;;;;;;5068440;28;20558;-81
2023/07/05 07:00:13;;;;;;;6.27;3.03;;;16.70;99.90;;;;;;5061812;28;20889;-81
2023/07/05 07:02:40;;;;;;;4.00;1.60;;;16.70;99.90;;;;;;5063619;28;20961;-81
2023/07/05 07:05:07;;;;;;;3.53;2.17;;;16.70;96.60;;;;;;5057479;28;21163;-79
2023/07/05 07:07:34;;;;;;;6.77;2.37;;;16.70;99.90;;;;;;5055545;28;20482;-81
2023/07/05 07:10:03;;;;;;;5.10;2.47;;;16.90;1.00;;;;;;5071951;28;20549;-80
2023/07/05 07:12:31;;;;;;;4.57;1.80;;;16.90;99.90;;;;;;5065450;28;20525;-81
2023/07/05 07:14:58;;;;;;;3.37;1.73;;;16.90;4.70;;;;;;5069293;28;20459;-81
2023/07/05 07:17:25;;;;;;;5.23;2.40;;;17.00;1.00;;;;;;5073096;28;20530;-81
2023/07/05 07:19:51;;;;;;;4.80;2.30;;;16.90;1.00;;;;;;5066976;28;21046;-82
2023/07/05 07:22:18;;;;;;;4.70;2.27;;;17.00;99.90;;;;;;5079704;28;21126;-82
2023/07/05 07:24:45;;;;;;;4.20;1.63;;;16.90;1.00;;;;;;5065747;28;20913;-82
2023/07/05 07:27:12;;;;;;;6.40;3.00;;;16.80;1.00;;;;;;5060970;28;20479;-82
2023/07/05 07:29:41;;;;;;;4.07;1.90;;;16.80;1.00;;;;;;5067757;28;20459;-83
2023/07/05 07:32:09;;;;;;;7.00;2.67;;;16.70;99.90;;;;;;5081216;28;20542;-82
2023/07/05 07:34:36;;;;;;;3.07;2.33;;;16.70;99.90;;;;;;5076338;28;20465;-82
2023/07/05 07:37:03;;;;;;;8.23;2.00;;;16.70;74.70;;;;;;5064815;28;20487;-81
2023/07/05 07:39:30;;;;;;;3.20;1.80;;;16.80;99.90;;;;;;5078146;28;20553;-81
2023/07/05 07:41:57;;;;;;;6.97;2.20;;;16.90;1.00;;;;;;5078028;28;20506;-81
2023/07/05 07:44:24;;;;;;;2.80;1.90;;;16.90;99.90;;;;;;5075201;28;20475;-82
2023/07/05 07:46:52;;;;;;;6.77;2.67;;;16.90;99.90;;;;;;5073851;28;20482;-81
2023/07/05 07:49:20;;;;;;;6.90;2.00;;;16.70;1.00;;;;;;5065927;28;20449;-83
2023/07/05 07:51:46;;;;;;;2.90;1.80;;;16.50;1.00;;;;;;5060822;28;20472;-82
2023/07/05 07:54:16;;;;;;;3.93;2.00;;;16.60;99.90;;;;;;5070402;28;20617;-82
2023/07/05 07:56:44;;;;;;;7.00;2.00;;;16.40;99.90;;;;;;5078069;28;20935;-81
2023/07/05 07:59:11;;;;;;;5.30;2.57;;;16.30;1.00;;;;;;5077211;28;20454;-82
2023/07/05 08:01:39;;;;;;;4.03;1.80;;;16.30;1.00;;;;;;5074668;28;20462;-83
2023/07/05 08:04:10;;;;;;;4.83;1.73;;;16.20;1.00;;;;;;5068290;28;20447;-83
2023/07/05 08:06:40;;;;;;;4.60;1.90;;;16.10;1.00;;;;;;5057318;28;20492;-81
2023/07/05 08:09:08;;;;;;;6.50;1.63;;;16.00;1.00;;;;;;5057551;28;20457;-82
2023/07/05 08:11:36;;;;;;;2.93;1.87;;;15.90;1.00;;;;;;5057216;28;20527;-81
2023/07/05 08:14:03;;;;;;;4.80;2.03;;;15.90;1.00;;;;;;5060013;28;20461;-82
2023/07/05 08:16:30;;;;;;;6.10;1.57;;;15.90;1.00;;;;;;5072485;28;20464;-82
2023/07/05 08:18:57;;;;;;;5.13;1.93;;;15.90;1.00;;;;;;5083302;28;20895;-81
2023/07/05 08:21:25;;;;;;;6.70;1.73;;;16.00;1.00;;;;;;5066998;28;20467;-82
2023/07/05 08:23:52;;;;;;;3.73;1.80;;;16.30;1.00;;;;;;5070386;28;20929;-82
2023/07/05 08:26:19;;;;;;;3.67;1.60;;;16.50;99.90;;;;;;5073916;28;20478;-83
2023/07/05 08:28:47;;;;;;;6.13;2.03;;;16.70;99.90;;;;;;5062064;28;20448;-83
2023/07/05 08:31:14;;;;;;;3.50;1.47;;;17.00;99.90;;;;;;5061704;28;20498;-85
2023/07/05 08:33:43;;;;;;;3.73;1.63;;;16.90;99.90;;;;;;5062418;28;20458;-82
2023/07/05 08:36:18;;;;;;;3.47;1.37;;;17.00;99.90;;;;;;5068990;28;20516;-82
2023/07/05 08:38:49;;;;;;;4.33;2.00;;;16.80;45.50;;;;;;5070787;28;20454;-81
2023/07/05 08:41:27;;;;;;;4.20;1.90;;;16.80;99.90;;;;;;5065832;28;20447;-81
2023/07/05 08:44:02;;;;;;;5.50;1.87;;;16.70;99.90;;;;;;5083629;28;20536;-81
2023/07/05 08:46:30;;;;;;;3.13;1.50;;;16.50;59.40;;;;;;5081874;28;20565;-83
2023/07/05 08:49:13;;;;;;;4.40;1.60;;;16.40;99.90;;;;;;5081477;28;20521;-83
2023/07/05 08:51:42;;;;;;;4.30;1.83;;;16.40;99.90;;;;;;5061123;28;20503;-82
2023/07/05 08:54:13;;;;;;;3.60;1.37;;;16.30;99.90;;;;;;5067495;28;20538;-82
2023/07/05 08:56:43;;;;;;;4.23;1.73;;;16.30;1.00;;;;;;5063156;28;20450;-81
2023/07/05 08:59:20;;;;;;;2.60;1.70;;;16.20;99.90;;;;;;5059368;28;20830;-80
2023/07/05 09:01:49;;;;;;;6.43;2.13;;;16.20;99.90;;;;;;5064279;28;20460;-80
2023/07/05 09:04:25;;;;;;;5.37;1.90;;;16.20;99.90;;;;;;5066918;28;20558;-81
2023/07/05 09:06:59;;;;;;;6.77;1.80;;;16.20;99.90;;;;;;5074236;28;20494;-81
2023/07/05 09:09:43;;;;;;;6.13;1.67;;;16.10;99.90;;;;;;5059941;28;20531;-81
2023/07/05 09:12:20;;;;;;;2.93;1.13;;;16.20;81.10;;;;;;5068712;28;20454;-83
2023/07/05 09:15:07;;;;;;;8.47;1.50;;;16.20;99.90;;;;;;5058997;28;20486;-81
2023/07/05 09:17:48;;;;;;;2.23;1.13;;;16.20;99.90;;;;;;5059999;28;20448;-81
2023/07/05 09:20:28;;;;;;;5.20;1.70;;;16.20;16.80;;;;;;5062263;28;20441;-80
2023/07/05 09:22:56;;;;;;;5.00;1.33;;;16.30;99.90;;;;;;5064453;28;20535;-81
2023/07/05 09:25:26;;;;;;;7.17;1.80;;;16.40;99.90;;;;;;5059216;28;20482;-81
2023/07/05 09:28:01;;;;;;;3.90;1.50;;;16.60;99.90;;;;;;5065286;28;20453;-83
2023/07/05 09:30:29;;;;;;;7.83;1.73;;;16.70;1.00;;;;;;5061665;28;20901;-84
2023/07/05 09:33:05;;;;;;;7.90;2.63;;;16.90;99.90;;;;;;5060819;28;20453;-82
2023/07/05 09:35:36;;;;;;;2.57;1.40;;;17.00;30.70;;;;;;5059053;28;20481;-80
2023/07/05 09:38:12;;;;;;;4.53;1.30;;;17.70;1.00;;;;;;5060846;28;20464;-81
2023/07/05 09:40:46;;;;;;;3.50;1.40;;;17.90;99.90;;;;;;5062017;28;20853;-82
2023/07/05 09:43:17;;;;;;;3.80;1.30;;;18.40;99.90;;;;;;5064583;28;20458;-83
2023/07/05 09:45:43;;;;;;;6.37;1.60;;;19.00;99.90;;;;;;5058838;28;20501;-81
2023/07/05 09:48:13;;;;;;;5.43;1.87;;;18.60;99.90;;;;;;5057743;28;20461;-81
2023/07/05 09:50:46;;;;;;;6.20;1.30;;;18.20;1.00;;;;;;5063423;28;20784;-81
2023/07/05 09:53:31;;;;;;;2.23;1.30;;;18.60;1.00;;;;;;5067263;28;20462;-82
2023/07/05 09:56:04;;;;;;;6.40;1.37;;;18.60;1.00;;;;;;5069102;28;20490;-82
2023/07/05 09:58:31;;;;;;;5.20;1.30;;;18.60;1.00;;;;;;5065362;28;20945;-81
2023/07/05 10:01:02;;;;;;;8.90;1.63;;;18.70;99.90;;;;;;5070474;28;20460;-83
2023/07/05 10:03:35;;;;;;;6.30;1.67;;;19.00;99.90;;;;;;5072456;28;20512;-83
2023/07/05 10:06:07;;;;;;;8.40;1.50;;;19.00;1.00;;;;;;5065291;28;20495;-83
2023/07/05 10:08:42;;;;;;;5.73;1.70;;;19.30;99.90;;;;;;5066508;28;20467;-84
2023/07/05 10:11:21;;;;;;;5.47;1.60;;;18.90;1.00;;;;;;5069234;28;20809;-84
2023/07/05 10:14:02;;;;;;;8.33;1.70;;;19.00;99.90;;;;;;5068913;28;20981;-84
2023/07/05 10:16:49;;;;;;;5.60;1.50;;;18.80;1.00;;;;;;5069112;28;20507;-84
2023/07/05 10:19:27;;;;;;;14.03;2.47;;;18.90;1.00;;;;;;5064862;28;20535;-83
2023/07/05 10:21:58;;;;;;;4.10;1.67;;;18.70;1.00;;;;;;5073509;28;20449;-84
2023/07/05 10:24:27;;;;;;;5.60;1.40;;;18.90;99.90;;;;;;5080734;28;20561;-85
2023/07/05 10:27:09;;;;;;;9.40;1.67;;;18.80;1.00;;;;;;5083547;28;21231;-85
2023/07/05 10:29:37;;;;;;;10.63;2.27;;;18.90;1.00;;;;;;5066409;28;20484;-83
2023/07/05 10:32:04;;;;;;;4.23;1.97;;;19.10;1.00;;;;;;5071406;28;20455;-86
2023/07/05 10:34:31;;;;;;;3.40;1.37;;;19.30;1.00;;;;;;5068936;28;20475;-84
2023/07/05 10:36:58;;;;;;;6.40;1.30;;;19.40;1.00;;;;;;5062459;28;20455;-84
2023/07/05 10:39:27;;;;;;;7.87;2.03;;;19.80;1.00;;;;;;5065120;28;20487;-83
2023/07/05 10:41:58;;;;;;;4.20;1.73;;;20.40;1.00;;;;;;5077776;28;20837;-84
2023/07/05 10:44:32;;;;;;;3.10;1.63;;;20.30;1.00;;;;;;5077639;28;20494;-83
2023/07/05 10:46:59;;;;;;;3.80;1.53;;;19.70;99.90;;;;;;5066590;28;20530;-83
2023/07/05 10:49:30;;;;;;;3.97;1.70;;;20.10;1.00;;;;;;5062054;28;20448;-82
2023/07/05 10:52:01;;;;;;;6.37;1.90;;;19.90;1.00;;;;;;5063828;28;20544;-85
2023/07/05 10:54:34;;;;;;;5.20;1.80;;;19.80;1.00;;;;;;5066064;28;21007;-85
2023/07/05 10:57:05;;;;;;;4.80;1.40;;;19.90;1.00;;;;;;5075693;28;20455;-85
2023/07/05 10:59:38;;;;;;;6.30;1.70;;;19.90;1.00;;;;;;5075661;28;20530;-84
2023/07/05 11:02:33;;;;;;;4.97;1.97;;;19.40;1.00;;;;;;5078197;28;20463;-84
2023/07/05 11:05:00;;;;;;;5.30;2.23;;;19.90;1.00;;;;;;5071327;28;20472;-83
2023/07/05 11:07:27;;;;;;;5.80;1.80;;;19.60;1.00;;;;;;5072532;28;20572;-82
2023/07/05 11:09:54;;;;;;;5.67;1.60;;;18.50;1.00;;;;;;5072742;28;20448;-85
2023/07/05 11:12:24;;;;;;;4.30;1.40;;;19.30;1.00;;;;;;5073308;28;20453;-82
2023/07/05 11:14:54;;;;;;;5.63;1.63;;;19.20;1.00;;;;;;5075095;28;20478;-83
2023/07/05 11:17:27;;;;;;;11.07;2.10;;;18.80;1.00;;;;;;5068607;28;20512;-85
2023/07/05 11:19:54;;;;;;;3.50;1.73;;;19.10;1.00;;;;;;5075881;28;20450;-82
2023/07/05 11:22:41;;;;;;;4.80;1.83;;;19.00;1.00;;;;;;5077792;28;20537;-84
2023/07/05 11:25:13;;;;;;;4.73;1.63;;;19.30;1.00;;;;;;5067420;28;20476;-82
2023/07/05 11:27:55;;;;;;;2.93;1.40;;;19.50;1.00;;;;;;5062751;28;20490;-83
2023/07/05 11:30:46;;;;;;;7.83;2.37;;;19.60;1.00;;;;;;5065961;28;20509;-85
2023/07/05 11:33:20;;;;;;;2.33;1.23;;;20.40;1.00;;;;;;5067644;28;20883;-84
2023/07/05 11:35:49;;;;;;;7.40;1.60;;;21.60;1.00;;;;;;5069075;28;20467;-82
2023/07/05 11:39:02;;;;;;;5.43;1.60;;;22.50;1.00;;;;;;5074456;28;21056;-84
2023/07/05 11:41:32;;;;;;;9.97;1.90;;;22.70;1.00;;;;;;5074361;28;20452;-83
2023/07/05 11:44:01;;;;;;;5.40;1.60;;;21.70;99.90;;;;;;5068499;28;20446;-84
2023/07/05 11:46:50;;;;;;;6.40;1.90;;;22.50;1.00;;;;;;5066500;28;20549;-83
2023/07/05 11:49:39;;;;;;;3.47;1.37;;;22.50;1.00;;;;;;5063693;28;20448;-82
2023/07/05 11:52:13;;;;;;;4.00;1.50;;;23.00;92.90;;;;;;5073440;28;20530;-82
2023/07/05 11:54:49;;;;;;;3.50;1.47;;;21.70;57.90;;;;;;5072825;28;20476;-82
2023/07/05 11:57:17;;;;;;;3.13;1.20;;;23.00;1.00;;;;;;5069090;22;20529;-81
2023/07/05 11:59:51;;;;;;;3.40;1.13;;;22.40;18.00;;;;;;5049597;28;20546;-84
2023/07/05 12:02:36;;;;;;;5.80;1.70;;;22.70;99.90;;;;;;5057494;28;20448;-84
2023/07/05 12:05:10;;;;;;;2.80;1.10;;;24.10;1.00;;;;;;5038379;28;20457;-81
2023/07/05 12:07:38;;;;;;;6.37;3.00;;;24.00;1.00;;;;;;5046825;28;20869;-82
2023/07/05 12:10:07;;;;;;;4.30;1.80;;;24.40;99.90;;;;;;5058055;28;20458;-83
2023/07/05 12:12:39;;;;;;;5.53;1.60;;;24.00;99.90;;;;;;5059411;28;20484;-83
2023/07/05 12:15:07;;;;;;;5.60;1.70;;;22.20;99.90;;;;;;5039974;28;20452;-80
2023/07/05 12:17:37;;;;;;;5.97;1.70;;;22.40;99.90;;;;;;5039131;28;20469;-82
2023/07/05 12:20:07;;;;;;;11.90;2.37;;;22.30;99.90;;;;;;5041605;28;20452;-81
2023/07/05 12:22:34;;;;;;;6.90;1.77;;;22.30;99.90;;;;;;5059936;28;20519;-84
2023/07/05 12:25:02;;;;;;;3.43;1.30;;;22.80;99.90;;;;;;5057370;28;20456;-83
2023/07/05 12:27:31;;;;;;;6.70;1.50;;;23.50;99.90;;;;;;5052597;28;20484;-86
2023/07/05 12:30:00;;;;;;;6.67;1.80;;;24.20;99.90;;;;;;5040653;28;20471;-83
2023/07/05 12:32:29;;;;;;;7.53;1.60;;;24.60;99.90;;;;;;5044584;28;20873;-84
2023/07/05 12:35:15;;;;;;;4.37;1.40;;;24.90;99.90;;;;;;5046956;28;21024;-82
2023/07/05 12:37:42;;;;;;;4.57;1.70;;;24.60;99.90;;;;;;5044755;28;20567;-82
2023/07/05 12:40:19;;;;;;;3.50;1.40;;;24.40;99.90;;;;;;5044529;28;20454;-83
2023/07/05 12:42:50;;;;;;;4.60;1.40;;;23.70;99.90;;;;;;5046480;28;20491;-83
2023/07/05 12:45:22;;;;;;;6.00;1.53;;;23.40;99.90;;;;;;5042883;28;20480;-84
2023/07/05 12:47:49;;;;;;;4.50;1.37;;;23.10;99.90;;;;;;5050065;28;20488;-81
2023/07/05 12:50:21;;;;;;;2.90;1.30;;;23.50;99.90;;;;;;5052182;28;20484;-85
2023/07/05 12:53:06;;;;;;;6.83;1.67;;;23.90;99.90;;;;;;5057135;28;20470;-83
2023/07/05 12:55:39;;;;;;;5.43;1.70;;;23.80;99.90;;;;;;5043992;28;20551;-82
2023/07/05 12:58:10;;;;;;;4.93;1.47;;;24.10;99.90;;;;;;5056069;28;20474;-82
2023/07/05 13:00:40;;;;;;;9.63;1.23;;;24.60;99.90;;;;;;5041348;28;20456;-83
2023/07/05 13:03:07;;;;;;;4.80;1.40;;;25.20;99.90;;;;;;5047304;28;20906;-84
2023/07/05 13:05:40;;;;;;;5.83;1.10;;;25.60;99.90;;;;;;5046972;28;20539;-82
2023/07/05 13:08:08;;;;;;;4.60;1.00;;;25.60;99.90;;;;;;5057793;28;20488;-84